Time;durP1;ratioP1;P1;durP2;ratioP2;P2;SDS_P1;SDS_P2;PMS_P1;PMS_P2;Temp;Humidity;BMP_temperature;BMP_pressure;BME280_temperature;BME280_humidity;BME280_pressure;Samples;Min_cycle;Max_cycle;Signal;HPM_P1;HPM_P2
2022/10/17 00:04:40;;;;;;;11.50;7.50;;;22.30;71.50;;;;;;214903;1282;24299;-56
2022/10/17 00:09:49;;;;;;;10.30;7.30;;;22.30;71.50;;;;;;215018;1292;25406;-56
2022/10/17 00:14:54;;;;;;;14.20;8.10;;;22.30;72.10;;;;;;214587;1286;22644;-54
2022/10/17 00:19:59;;;;;;;12.10;7.40;;;22.30;71.50;;;;;;214680;1300;25327;-54
2022/10/17 00:25:03;;;;;;;12.40;7.70;;;22.20;71.40;;;;;;214890;1286;22526;-56
2022/10/17 00:30:13;;;;;;;11.70;7.90;;;22.30;71.50;;;;;;214836;1285;22495;-53
2022/10/17 00:35:17;;;;;;;11.50;7.00;;;22.30;71.80;;;;;;214887;1296;24188;-52
2022/10/17 00:40:21;;;;;;;13.20;7.90;;;22.30;71.40;;;;;;214718;1284;22535;-53
2022/10/17 00:45:28;;;;;;;11.30;6.50;;;22.20;71.70;;;;;;214797;1288;24649;-54
2022/10/17 00:50:46;;;;;;;12.30;7.40;;;22.20;71.40;;;;;;215049;1278;25077;-54
2022/10/17 00:56:03;;;;;;;15.40;7.90;;;22.20;71.50;;;;;;215162;1275;23488;-52
2022/10/17 01:01:06;;;;;;;16.30;7.30;;;22.20;71.40;;;;;;214935;1282;22449;-53
2022/10/17 01:06:11;;;;;;;11.30;7.00;;;22.20;71.60;;;;;;214867;1292;22578;-54
2022/10/17 01:11:53;;;;;;;11.80;7.40;;;22.20;72.00;;;;;;214946;1297;25231;-55
2022/10/17 01:17:27;;;;;;;14.40;7.80;;;22.20;71.60;;;;;;214776;1289;22585;-54
2022/10/17 01:22:46;;;;;;;11.00;7.10;;;22.20;72.10;;;;;;214601;1288;25426;-55
2022/10/17 01:28:08;;;;;;;8.70;7.00;;;22.20;71.50;;;;;;215019;1275;22518;-55
2022/10/17 01:33:36;;;;;;;11.80;6.90;;;22.20;71.70;;;;;;214977;1276;24228;-55
2022/10/17 01:38:51;;;;;;;10.40;7.90;;;22.20;71.60;;;;;;215046;1300;25314;-54
2022/10/17 01:44:04;;;;;;;10.60;7.00;;;22.10;71.50;;;;;;214722;1298;22673;-52
2022/10/17 01:49:10;;;;;;;12.50;7.40;;;22.10;71.50;;;;;;214990;1286;22471;-56
2022/10/17 01:54:20;;;;;;;11.40;7.00;;;22.10;71.50;;;;;;214864;1291;24400;-55
2022/10/17 01:59:30;;;;;;;10.60;6.80;;;22.10;71.50;;;;;;214760;1284;22462;-53
2022/10/17 02:04:36;;;;;;;9.00;6.80;;;22.10;71.50;;;;;;214877;1278;25230;-56
2022/10/17 02:09:40;;;;;;;14.30;8.20;;;22.00;71.60;;;;;;214647;1288;22505;-55
2022/10/17 02:15:22;;;;;;;12.10;7.20;;;22.00;71.50;;;;;;214561;1290;22721;-55
2022/10/17 02:20:59;;;;;;;11.30;7.30;;;22.00;71.60;;;;;;214109;1294;24259;-54
2022/10/17 02:26:24;;;;;;;13.40;7.30;;;22.00;71.60;;;;;;217819;1296;25442;-56
2022/10/17 02:31:38;;;;;;;14.70;7.30;;;22.00;71.60;;;;;;215415;1281;22465;-54
2022/10/17 02:36:53;;;;;;;12.80;7.90;;;22.10;71.70;;;;;;214987;1291;25583;-55
2022/10/17 02:42:08;;;;;;;10.50;6.60;;;22.00;71.70;;;;;;214858;1288;26757;-55
2022/10/17 02:47:24;;;;;;;14.60;7.10;;;22.00;71.80;;;;;;214994;1295;23853;-56
2022/10/17 02:52:40;;;;;;;9.70;7.30;;;22.00;71.80;;;;;;214917;1285;24219;-54
2022/10/17 02:57:49;;;;;;;9.30;6.70;;;22.00;71.90;;;;;;215173;1282;22465;-56
2022/10/17 03:02:53;;;;;;;8.10;6.30;;;22.00;72.10;;;;;;214996;1294;23844;-55
2022/10/17 03:08:00;;;;;;;9.50;6.40;;;22.00;71.70;;;;;;215095;1284;22495;-56
2022/10/17 03:13:03;;;;;;;7.80;6.10;;;22.00;72.30;;;;;;215055;1300;23855;-53
2022/10/17 03:18:09;;;;;;;9.50;6.80;;;22.00;71.90;;;;;;214949;1280;24255;-56
2022/10/17 03:23:12;;;;;;;12.50;7.30;;;21.90;71.90;;;;;;214798;1289;22451;-54
2022/10/17 03:28:16;;;;;;;9.90;6.70;;;21.90;72.00;;;;;;214865;1285;22902;-56
2022/10/17 03:33:20;;;;;;;10.20;6.60;;;21.90;72.30;;;;;;214965;1285;22470;-58
2022/10/17 03:38:24;;;;;;;8.90;6.60;;;21.90;72.20;;;;;;214797;1300;22519;-54
2022/10/17 03:43:29;;;;;;;8.50;6.30;;;21.90;71.70;;;;;;214940;1288;22607;-56
2022/10/17 03:48:33;;;;;;;10.30;6.20;;;21.90;71.90;;;;;;215097;1283;22482;-55
2022/10/17 03:53:37;;;;;;;10.30;6.10;;;21.90;72.40;;;;;;214943;1295;25353;-55
2022/10/17 03:58:41;;;;;;;12.00;7.10;;;21.90;71.90;;;;;;214942;1276;25232;-54
2022/10/17 04:03:50;;;;;;;10.20;7.20;;;21.90;71.90;;;;;;214888;1284;22458;-55
2022/10/17 04:08:57;;;;;;;12.90;6.40;;;21.90;71.90;;;;;;215048;1300;24267;-55
2022/10/17 04:14:08;;;;;;;11.90;6.70;;;21.90;71.80;;;;;;215034;1293;24215;-53
2022/10/17 04:19:12;;;;;;;11.60;7.30;;;21.80;71.70;;;;;;214765;1300;25336;-53
2022/10/17 04:24:19;;;;;;;11.00;6.50;;;21.80;71.80;;;;;;215038;1300;22462;-56
2022/10/17 04:29:43;;;;;;;8.20;6.20;;;21.80;71.80;;;;;;214973;1286;22577;-55
2022/10/17 04:34:57;;;;;;;10.70;6.70;;;21.80;71.70;;;;;;215002;1291;22466;-55
2022/10/17 04:40:06;;;;;;;8.80;6.30;;;21.80;72.10;;;;;;215095;1281;22466;-54
2022/10/17 04:45:12;;;;;;;9.80;7.00;;;21.80;71.80;;;;;;214920;1297;24234;-54
2022/10/17 04:50:17;;;;;;;8.00;6.10;;;21.80;71.70;;;;;;214870;1300;22453;-54
2022/10/17 04:55:38;;;;;;;10.30;6.50;;;21.80;71.60;;;;;;214901;1290;24680;-53
2022/10/17 05:00:42;;;;;;;9.40;6.10;;;21.80;71.70;;;;;;215104;1281;23019;-52
2022/10/17 05:05:55;;;;;;;8.40;6.30;;;21.80;71.60;;;;;;214920;1285;22628;-54
2022/10/17 05:11:02;;;;;;;7.30;5.90;;;21.70;72.10;;;;;;214941;1281;24343;-57
2022/10/17 05:16:10;;;;;;;10.90;6.80;;;21.80;71.60;;;;;;214970;1299;25274;-58
2022/10/17 05:21:17;;;;;;;7.90;5.80;;;21.80;71.80;;;;;;214733;1299;23974;-56
2022/10/17 05:26:23;;;;;;;8.00;5.90;;;21.70;71.60;;;;;;214770;1287;22464;-53
2022/10/17 05:31:29;;;;;;;9.30;6.30;;;21.70;71.80;;;;;;215008;1282;22827;-55
2022/10/17 05:36:36;;;;;;;9.70;6.50;;;21.70;71.80;;;;;;214925;1290;22709;-56
2022/10/17 05:41:40;;;;;;;12.30;7.10;;;21.70;71.60;;;;;;215110;1300;25287;-54
2022/10/17 05:46:44;;;;;;;8.10;6.30;;;21.70;71.90;;;;;;215007;1295;23847;-57
2022/10/17 05:51:48;;;;;;;8.70;6.20;;;21.60;71.90;;;;;;215066;1287;25303;-58
2022/10/17 05:56:53;;;;;;;10.10;6.60;;;21.70;72.50;;;;;;214967;1283;22502;-56
2022/10/17 06:01:57;;;;;;;8.60;5.80;;;21.70;72.80;;;;;;214979;1275;22474;-54
2022/10/17 06:07:01;;;;;;;12.20;6.50;;;21.70;73.00;;;;;;214813;1284;183647;-56
2022/10/17 06:12:08;;;;;;;10.00;5.30;;;21.70;73.70;;;;;;215000;1280;22481;-55
2022/10/17 06:17:12;;;;;;;17.20;7.50;;;21.70;74.20;;;;;;215112;1285;25434;-56
2022/10/17 06:22:22;;;;;;;12.00;6.20;;;21.70;73.90;;;;;;215040;1281;22466;-57
2022/10/17 06:27:28;;;;;;;12.40;6.10;;;21.70;74.90;;;;;;215036;1292;23872;-56
2022/10/17 06:32:52;;;;;;;15.50;6.20;;;21.70;75.10;;;;;;214930;1284;24257;-56
2022/10/17 06:37:57;;;;;;;13.60;6.30;;;21.80;75.00;;;;;;214958;1278;22466;-56
2022/10/17 06:43:03;;;;;;;15.40;6.60;;;21.90;75.10;;;;;;214931;1285;24516;-58
2022/10/17 06:48:30;;;;;;;12.10;5.90;;;21.90;74.60;;;;;;214935;1282;22466;-57
2022/10/17 06:53:58;;;;;;;13.40;6.30;;;22.00;74.30;;;;;;215037;1294;22549;-56
2022/10/17 06:59:20;;;;;;;20.90;6.40;;;22.00;73.60;;;;;;215005;1286;22587;-59
2022/10/17 07:04:30;;;;;;;9.60;5.90;;;22.00;73.50;;;;;;214976;1292;26472;-56
2022/10/17 07:09:35;;;;;;;9.80;6.20;;;22.00;73.20;;;;;;215050;1287;25186;-56
2022/10/17 07:14:39;;;;;;;9.00;6.40;;;22.00;73.20;;;;;;214916;1281;24227;-57
2022/10/17 07:19:42;;;;;;;10.00;6.50;;;22.00;72.90;;;;;;215191;1284;23845;-60
2022/10/17 07:24:46;;;;;;;10.60;6.40;;;22.00;72.70;;;;;;214984;1281;22525;-54
2022/10/17 07:30:00;;;;;;;12.10;6.80;;;22.10;72.00;;;;;;214930;1287;23280;-55
2022/10/17 07:35:13;;;;;;;12.50;6.90;;;22.00;72.30;;;;;;214899;1291;22476;-54
2022/10/17 07:40:17;;;;;;;10.50;7.00;;;22.10;72.40;;;;;;215140;1291;24322;-56
2022/10/17 07:45:26;;;;;;;12.10;6.70;;;22.10;71.90;;;;;;214714;1288;23101;-55
2022/10/17 07:50:30;;;;;;;11.10;6.90;;;22.20;71.80;;;;;;214829;1284;22592;-58
2022/10/17 07:55:38;;;;;;;9.60;6.40;;;22.20;71.90;;;;;;214795;1299;22471;-56
2022/10/17 08:00:42;;;;;;;9.50;6.90;;;22.20;71.60;;;;;;215049;1288;26576;-56
2022/10/17 08:05:45;;;;;;;9.90;7.00;;;22.20;71.20;;;;;;215104;1295;23859;-55
2022/10/17 08:10:49;;;;;;;10.20;7.00;;;22.20;71.10;;;;;;215011;1291;22467;-59
2022/10/17 08:15:58;;;;;;;10.20;7.30;;;22.20;71.20;;;;;;215030;1293;22469;-57
2022/10/17 08:21:07;;;;;;;15.40;8.00;;;22.30;71.60;;;;;;215095;1296;22590;-56
2022/10/17 08:26:12;;;;;;;12.10;6.90;;;22.30;71.40;;;;;;215091;1282;22525;-55
2022/10/17 08:31:19;;;;;;;11.50;6.50;;;22.30;71.30;;;;;;214854;1300;25280;-56
2022/10/17 08:36:23;;;;;;;11.40;7.10;;;22.40;71.10;;;;;;215029;1285;22679;-57
2022/10/17 08:41:45;;;;;;;9.40;7.70;;;22.40;71.10;;;;;;215251;1282;22500;-58
2022/10/17 08:46:55;;;;;;;11.60;7.10;;;22.50;71.00;;;;;;215179;1287;22527;-57
2022/10/17 08:52:14;;;;;;;9.40;7.60;;;22.50;70.40;;;;;;215121;1289;22693;-56
2022/10/17 08:57:19;;;;;;;11.00;7.70;;;22.50;70.30;;;;;;214979;1294;22519;-51
2022/10/17 09:02:47;;;;;;;9.20;7.10;;;22.60;70.30;;;;;;215054;1275;23047;-59
2022/10/17 09:08:15;;;;;;;8.90;6.80;;;22.50;70.00;;;;;;215057;1288;22582;-57
2022/10/17 09:13:39;;;;;;;10.60;7.80;;;22.50;70.40;;;;;;214917;1294;24225;-56
2022/10/17 09:18:50;;;;;;;12.30;7.70;;;22.60;70.00;;;;;;215006;1284;22467;-53
2022/10/17 09:24:00;;;;;;;10.10;7.40;;;22.60;69.50;;;;;;215060;1288;25361;-56
2022/10/17 09:29:22;;;;;;;9.30;7.60;;;22.70;69.70;;;;;;214985;1293;22507;-50
2022/10/17 09:34:28;;;;;;;10.90;6.80;;;22.70;69.40;;;;;;214994;1292;24249;-51
2022/10/17 09:39:34;;;;;;;12.70;8.00;;;22.80;69.30;;;;;;215026;1293;24022;-56
2022/10/17 09:44:49;;;;;;;13.10;8.10;;;22.80;69.20;;;;;;215067;1281;24225;-54
2022/10/17 09:49:54;;;;;;;11.30;7.70;;;22.90;69.10;;;;;;215086;1299;25294;-58
2022/10/17 09:55:06;;;;;;;13.00;7.60;;;22.90;69.00;;;;;;215094;1285;24238;-55
2022/10/17 10:00:20;;;;;;;10.80;8.00;;;23.00;68.90;;;;;;214926;1295;24381;-55
2022/10/17 10:05:24;;;;;;;11.90;7.30;;;23.00;68.80;;;;;;214862;1284;22893;-55
2022/10/17 10:10:28;;;;;;;10.50;8.20;;;23.10;68.70;;;;;;214942;1282;23055;-56
2022/10/17 10:15:36;;;;;;;10.70;7.50;;;23.10;68.50;;;;;;215074;1285;22484;-56
2022/10/17 10:20:45;;;;;;;11.70;8.40;;;23.20;68.40;;;;;;215087;1285;22554;-56
2022/10/17 10:25:55;;;;;;;9.50;8.00;;;23.30;68.30;;;;;;215133;1292;22562;-57
2022/10/17 10:31:03;;;;;;;9.30;7.90;;;23.40;67.90;;;;;;215239;1290;24262;-54
2022/10/17 10:36:07;;;;;;;11.10;8.10;;;23.50;67.50;;;;;;215003;1299;25556;-55
2022/10/17 10:41:14;;;;;;;11.70;8.90;;;23.40;67.20;;;;;;215079;1284;24229;-53
2022/10/17 10:46:20;;;;;;;10.20;7.70;;;23.50;67.30;;;;;;215054;1287;24230;-53
2022/10/17 10:51:38;;;;;;;11.30;8.20;;;23.60;67.30;;;;;;215106;1294;25295;-57
2022/10/17 10:56:52;;;;;;;11.70;8.40;;;23.70;67.20;;;;;;215052;1298;22462;-57
2022/10/17 11:01:58;;;;;;;10.40;7.80;;;23.70;67.60;;;;;;215135;1292;22600;-57
2022/10/17 11:07:25;;;;;;;10.40;9.20;;;23.70;67.30;;;;;;215039;1284;22579;-57
2022/10/17 11:12:37;;;;;;;13.20;8.90;;;23.70;67.30;;;;;;215041;1294;22475;-55
2022/10/17 11:18:07;;;;;;;10.50;8.60;;;23.80;67.00;;;;;;215026;1300;25533;-56
2022/10/17 11:23:23;;;;;;;12.40;8.80;;;23.90;66.80;;;;;;215048;1295;22976;-55
2022/10/17 11:28:31;;;;;;;12.10;9.00;;;23.90;66.60;;;;;;215005;1293;23942;-54
2022/10/17 11:33:59;;;;;;;12.30;8.70;;;23.90;66.60;;;;;;215083;1293;25119;-55
2022/10/17 11:39:07;;;;;;;9.60;7.90;;;23.90;66.60;;;;;;215038;1287;22521;-55
2022/10/17 11:44:19;;;;;;;9.30;8.30;;;24.00;66.90;;;;;;215044;1292;23865;-54
2022/10/17 11:49:28;;;;;;;9.90;8.50;;;24.00;66.30;;;;;;215130;1281;22503;-57
2022/10/17 11:54:49;;;;;;;10.40;8.10;;;24.00;66.30;;;;;;215018;1288;22753;-53
2022/10/17 12:00:10;;;;;;;9.70;8.10;;;24.00;66.30;;;;;;215111;1281;22714;-54
2022/10/17 12:05:40;;;;;;;9.60;8.40;;;24.00;66.40;;;;;;215130;1292;22509;-56
2022/10/17 12:11:25;;;;;;;10.00;8.40;;;24.00;66.30;;;;;;215084;1288;22696;-55
2022/10/17 12:16:28;;;;;;;10.90;8.70;;;24.00;66.40;;;;;;215030;1300;26767;-57
2022/10/17 12:21:56;;;;;;;11.60;9.10;;;24.00;66.50;;;;;;214980;1281;24240;-55
2022/10/17 12:27:31;;;;;;;10.20;8.80;;;24.00;66.60;;;;;;215009;1285;25634;-55
2022/10/17 12:32:34;;;;;;;10.60;8.50;;;23.90;66.50;;;;;;215026;1300;25911;-57
2022/10/17 12:38:13;;;;;;;11.60;8.90;;;23.90;66.50;;;;;;214904;1300;22585;-54
2022/10/17 12:43:16;;;;;;;10.40;7.90;;;23.90;67.00;;;;;;215024;1292;22553;-55
2022/10/17 12:48:32;;;;;;;11.00;8.60;;;23.90;66.60;;;;;;215038;1294;24042;-56
2022/10/17 12:53:59;;;;;;;10.10;8.40;;;24.00;66.60;;;;;;215018;1292;25359;-55
2022/10/17 12:59:14;;;;;;;10.00;7.90;;;24.00;66.60;;;;;;215031;1300;25277;-57
2022/10/17 13:04:19;;;;;;;10.10;8.00;;;24.00;66.60;;;;;;215182;1285;24416;-55
2022/10/17 13:09:37;;;;;;;9.60;8.40;;;24.00;66.50;;;;;;215019;1288;24351;-54
2022/10/17 13:14:46;;;;;;;9.80;7.90;;;24.10;66.50;;;;;;214989;1292;25298;-55
2022/10/17 13:19:49;;;;;;;12.30;8.70;;;24.00;66.50;;;;;;215051;1285;22511;-55
2022/10/17 13:25:07;;;;;;;9.40;8.00;;;24.10;65.90;;;;;;215069;1295;22470;-57
2022/10/17 13:30:37;;;;;;;10.30;8.20;;;24.10;66.20;;;;;;215102;1298;23902;-54
2022/10/17 13:35:41;;;;;;;11.70;8.90;;;24.10;66.00;;;;;;215021;1295;25653;-57
2022/10/17 13:41:09;;;;;;;10.60;8.30;;;24.10;66.10;;;;;;215007;1295;24371;-54
2022/10/17 13:46:35;;;;;;;9.80;7.70;;;24.10;66.10;;;;;;215098;1288;24234;-54
2022/10/17 13:51:48;;;;;;;11.50;8.60;;;24.20;66.00;;;;;;215055;1287;23437;-54
2022/10/17 13:56:56;;;;;;;11.90;9.20;;;24.20;65.90;;;;;;215703;1287;22496;-56
2022/10/17 14:02:00;;;;;;;11.20;8.50;;;24.20;66.20;;;;;;214933;1281;24825;-55
2022/10/17 14:07:06;;;;;;;12.80;9.20;;;24.20;65.90;;;;;;215257;1285;23825;-58
2022/10/17 14:12:15;;;;;;;10.50;8.70;;;24.10;66.00;;;;;;215050;1288;22458;-54
2022/10/17 14:17:25;;;;;;;12.90;8.90;;;24.10;66.10;;;;;;215126;1292;22478;-56
2022/10/17 14:22:36;;;;;;;12.20;8.70;;;24.10;66.70;;;;;;215036;1285;23867;-55
2022/10/17 14:28:02;;;;;;;12.00;8.80;;;24.10;66.40;;;;;;215214;1300;25361;-54
2022/10/17 14:33:14;;;;;;;11.20;8.60;;;24.00;66.20;;;;;;214828;1286;24262;-53
2022/10/17 14:38:19;;;;;;;9.80;8.30;;;24.00;66.30;;;;;;215006;1298;25265;-54
2022/10/17 14:43:27;;;;;;;10.90;8.80;;;24.00;66.40;;;;;;214918;1288;22956;-57
2022/10/17 14:48:32;;;;;;;9.60;8.20;;;24.00;66.40;;;;;;215048;1288;24888;-54
2022/10/17 14:53:39;;;;;;;10.50;8.40;;;23.90;66.80;;;;;;215090;1300;22615;-58
2022/10/17 14:58:44;;;;;;;10.50;9.00;;;23.90;66.50;;;;;;214885;1287;24587;-56
2022/10/17 15:03:52;;;;;;;15.70;9.50;;;23.90;66.80;;;;;;214919;1288;24211;-53
2022/10/17 15:08:57;;;;;;;13.80;8.10;;;23.80;66.80;;;;;;220434;1287;23174;-56
2022/10/17 15:14:07;;;;;;;21.80;10.90;;;23.80;67.30;;;;;;214744;1291;22468;-53
2022/10/17 15:19:19;;;;;;;17.20;10.90;;;23.90;68.20;;;;;;214693;1289;24316;-53
2022/10/17 15:24:23;;;;;;;19.70;12.40;;;23.90;69.90;;;;;;215017;1286;22479;-55
2022/10/17 15:29:27;;;;;;;15.30;11.90;;;23.90;70.30;;;;;;214899;1287;22481;-54
2022/10/17 15:34:30;;;;;;;16.30;11.80;;;23.90;70.90;;;;;;214960;1287;23011;-55
2022/10/17 15:39:35;;;;;;;20.50;11.30;;;23.90;70.90;;;;;;214874;1295;22504;-51
2022/10/17 15:44:42;;;;;;;18.30;11.20;;;23.90;70.90;;;;;;214658;1284;22578;-51
2022/10/17 15:49:54;;;;;;;14.50;10.40;;;23.80;70.50;;;;;;214890;1297;22476;-52
2022/10/17 15:54:57;;;;;;;18.10;10.60;;;23.80;70.90;;;;;;215005;1286;22562;-54
2022/10/17 16:00:26;;;;;;;16.50;10.30;;;23.70;70.70;;;;;;214809;1284;24012;-52
2022/10/17 16:05:32;;;;;;;16.20;10.50;;;23.70;70.40;;;;;;214807;1286;24897;-52
2022/10/17 16:10:38;;;;;;;14.20;9.50;;;23.70;70.30;;;;;;214853;1292;25363;-53
2022/10/17 16:15:46;;;;;;;14.00;9.40;;;23.70;70.20;;;;;;214971;1281;24349;-56
2022/10/17 16:21:08;;;;;;;14.00;9.90;;;23.70;70.00;;;;;;214947;1285;24311;-55
2022/10/17 16:26:46;;;;;;;17.60;10.60;;;23.70;69.80;;;;;;215012;1283;22464;-57
2022/10/17 16:31:57;;;;;;;18.00;10.10;;;23.70;70.00;;;;;;214892;1296;24301;-58
2022/10/17 16:37:07;;;;;;;13.70;8.90;;;23.70;69.80;;;;;;214985;1287;24212;-56
2022/10/17 16:42:25;;;;;;;14.40;9.50;;;23.70;69.40;;;;;;215057;1298;24314;-59
2022/10/17 16:47:35;;;;;;;15.70;9.70;;;23.80;69.00;;;;;;214957;1284;24358;-57
2022/10/17 16:52:58;;;;;;;14.90;9.60;;;23.90;69.10;;;;;;214663;1286;26653;-57
2022/10/17 16:58:19;;;;;;;14.90;9.70;;;24.00;69.00;;;;;;214849;1281;23332;-59
2022/10/17 17:03:37;;;;;;;14.80;9.70;;;24.00;68.80;;;;;;215096;1294;22453;-56
2022/10/17 17:08:45;;;;;;;19.30;9.50;;;24.00;69.40;;;;;;214959;1285;22706;-51
2022/10/17 17:14:08;;;;;;;15.00;9.00;;;24.10;69.00;;;;;;215043;1289;25343;-50
2022/10/17 17:19:22;;;;;;;19.40;9.50;;;24.10;68.80;;;;;;214972;1280;22518;-54
2022/10/17 17:24:28;;;;;;;20.80;10.90;;;24.10;69.20;;;;;;215035;1289;22545;-55
2022/10/17 17:29:51;;;;;;;18.10;9.70;;;24.10;69.30;;;;;;215192;1287;25264;-59
2022/10/17 17:34:57;;;;;;;17.90;8.70;;;24.10;68.70;;;;;;214692;1287;25198;-55
2022/10/17 17:40:01;;;;;;;11.70;7.50;;;24.10;68.40;;;;;;214910;1290;22474;-56
2022/10/17 17:45:05;;;;;;;13.40;7.90;;;24.30;67.70;;;;;;214948;1294;22469;-58
2022/10/17 17:50:10;;;;;;;15.90;9.60;;;24.30;68.40;;;;;;214884;1292;25255;-54
2022/10/17 17:55:13;;;;;;;17.50;8.10;;;24.10;68.50;;;;;;214629;1278;22481;-55
2022/10/17 18:00:19;;;;;;;15.80;9.10;;;24.10;68.80;;;;;;214681;1297;24255;-55
2022/10/17 18:05:23;;;;;;;16.90;9.10;;;24.10;68.70;;;;;;214848;1300;24960;-56
2022/10/17 18:10:29;;;;;;;17.50;9.10;;;24.10;68.70;;;;;;214649;1286;183438;-56
2022/10/17 18:15:42;;;;;;;16.10;9.70;;;24.10;68.70;;;;;;214951;1278;22494;-56
2022/10/17 18:20:49;;;;;;;20.80;8.60;;;24.10;68.60;;;;;;214917;1298;24232;-56
2022/10/17 18:25:59;;;;;;;23.80;9.20;;;24.10;69.00;;;;;;214882;1293;22475;-55
2022/10/17 18:31:14;;;;;;;10.80;8.10;;;24.10;69.10;;;;;;214883;1286;22507;-57
2022/10/17 18:36:21;;;;;;;16.70;7.50;;;24.10;68.30;;;;;;214856;1286;22847;-56
2022/10/17 18:41:26;;;;;;;14.20;8.30;;;24.10;68.50;;;;;;215024;1282;22491;-54
2022/10/17 18:46:35;;;;;;;19.10;8.20;;;24.10;68.50;;;;;;215012;1286;22511;-56
2022/10/17 18:51:42;;;;;;;15.40;8.30;;;24.10;69.20;;;;;;214773;1283;24220;-53
2022/10/17 18:56:52;;;;;;;16.50;7.70;;;24.10;69.80;;;;;;215110;1284;22805;-52
2022/10/17 19:01:56;;;;;;;20.00;9.10;;;24.10;69.80;;;;;;214838;1300;22779;-56
2022/10/17 19:06:59;;;;;;;17.60;8.60;;;24.00;70.50;;;;;;214715;1295;26481;-56
2022/10/17 19:12:03;;;;;;;23.10;9.90;;;24.00;72.20;;;;;;215139;1284;22522;-55
2022/10/17 19:17:07;;;;;;;27.50;9.90;;;24.00;71.80;;;;;;214688;1285;22455;-58
2022/10/17 19:22:11;;;;;;;28.50;8.80;;;24.00;72.50;;;;;;214753;1282;22476;-57
2022/10/17 19:27:15;;;;;;;15.40;7.90;;;24.00;72.90;;;;;;214751;1300;26542;-57
2022/10/17 19:32:24;;;;;;;26.50;9.00;;;23.90;72.30;;;;;;214726;1290;22504;-57
2022/10/17 19:37:37;;;;;;;16.50;8.20;;;23.90;72.40;;;;;;215423;1293;24035;-58
2022/10/17 19:42:43;;;;;;;20.80;8.70;;;23.80;71.90;;;;;;214845;1287;24315;-56
2022/10/17 19:47:47;;;;;;;16.50;8.70;;;23.80;71.60;;;;;;214867;1287;22471;-56
2022/10/17 19:52:50;;;;;;;12.70;7.40;;;23.80;71.30;;;;;;214678;1289;23720;-58
2022/10/17 19:57:54;;;;;;;12.90;8.00;;;23.80;71.30;;;;;;214934;1298;22688;-56
2022/10/17 20:03:04;;;;;;;12.70;7.70;;;23.80;71.40;;;;;;214787;1281;24243;-55
2022/10/17 20:08:08;;;;;;;13.60;8.00;;;23.70;71.00;;;;;;214770;1286;22503;-57
2022/10/17 20:13:14;;;;;;;17.20;8.20;;;23.70;70.70;;;;;;214895;1280;23108;-56
2022/10/17 20:18:18;;;;;;;14.30;8.30;;;23.70;71.60;;;;;;214936;1281;22500;-56
2022/10/17 20:23:21;;;;;;;13.90;7.70;;;23.70;71.20;;;;;;214761;1282;22447;-56
2022/10/17 20:28:29;;;;;;;12.60;7.60;;;23.70;70.90;;;;;;215120;1286;22470;-56
2022/10/17 20:33:38;;;;;;;;;;;23.60;71.50;;;;;;214836;1286;26470;-57
2022/10/17 20:38:45;;;;;;;11.20;7.60;;;23.60;70.60;;;;;;214683;1295;22521;-57
2022/10/17 20:43:50;;;;;;;13.70;7.60;;;23.60;70.70;;;;;;214696;1293;22469;-56
2022/10/17 20:48:57;;;;;;;18.20;8.30;;;23.60;70.60;;;;;;215089;1294;25526;-55
2022/10/17 20:54:08;;;;;;;19.90;8.50;;;23.60;74.10;;;;;;214786;1300;22587;-57
2022/10/17 20:59:16;;;;;;;16.80;8.00;;;23.70;74.10;;;;;;214694;1285;22479;-57
2022/10/17 21:04:20;;;;;;;13.30;7.40;;;23.60;73.60;;;;;;214819;1297;27779;-54
2022/10/17 21:09:45;;;;;;;17.50;7.20;;;23.60;73.40;;;;;;214797;1285;22595;-57
2022/10/17 21:14:49;;;;;;;11.10;7.50;;;23.70;73.30;;;;;;214892;1274;22461;-57
2022/10/17 21:19:54;;;;;;;14.00;7.80;;;23.60;73.30;;;;;;214827;1286;24234;-58
2022/10/17 21:25:05;;;;;;;12.40;6.00;;;23.60;73.30;;;;;;214781;1295;22480;-57
2022/10/17 21:30:14;;;;;;;16.20;6.90;;;23.60;73.50;;;;;;214891;1285;22534;-57
2022/10/17 21:35:20;;;;;;;14.20;7.20;;;23.60;73.90;;;;;;214801;1295;26691;-56
2022/10/17 21:40:29;;;;;;;9.00;6.30;;;23.60;73.70;;;;;;215066;1281;22476;-57
2022/10/17 21:45:38;;;;;;;;;;;23.50;73.40;;;;;;214715;1297;22456;-57
2022/10/17 21:50:47;;;;;;;10.20;6.00;;;23.50;73.40;;;;;;214721;1286;23175;-55
2022/10/17 21:55:52;;;;;;;12.90;6.00;;;23.50;73.40;;;;;;214823;1282;22487;-57
2022/10/17 22:01:13;;;;;;;16.50;7.50;;;23.50;73.60;;;;;;214886;1282;24386;-57
2022/10/17 22:06:28;;;;;;;11.20;6.20;;;23.50;73.20;;;;;;214730;1290;24443;-56
2022/10/17 22:11:53;;;;;;;11.30;7.00;;;23.50;73.20;;;;;;214737;1284;22819;-57
2022/10/17 22:17:06;;;;;;;12.90;6.90;;;23.50;73.10;;;;;;214437;1284;22718;-56
2022/10/17 22:22:12;;;;;;;11.60;6.30;;;23.50;73.00;;;;;;214917;1287;22846;-56
2022/10/17 22:27:16;;;;;;;9.80;6.00;;;23.50;72.90;;;;;;214668;1290;22471;-56
2022/10/17 22:32:19;;;;;;;10.30;6.40;;;23.50;73.20;;;;;;214761;1284;22479;-57
2022/10/17 22:37:24;;;;;;;10.20;6.00;;;23.50;73.60;;;;;;215520;1282;24215;-53
2022/10/17 22:42:30;;;;;;;24.30;8.40;;;23.50;73.20;;;;;;214839;1284;24362;-58
2022/10/17 22:47:33;;;;;;;14.70;7.10;;;23.40;72.80;;;;;;215583;1282;24236;-57
2022/10/17 22:52:37;;;;;;;12.50;7.00;;;23.40;72.80;;;;;;214708;1286;22471;-57
2022/10/17 22:57:41;;;;;;;15.80;6.70;;;23.40;73.20;;;;;;214924;1286;25366;-56
2022/10/17 23:02:44;;;;;;;11.30;6.60;;;23.40;72.80;;;;;;215123;1282;24426;-55
2022/10/17 23:07:48;;;;;;;12.40;7.50;;;23.40;72.70;;;;;;214721;1284;22473;-57
2022/10/17 23:12:51;;;;;;;15.30;7.10;;;23.30;72.50;;;;;;215148;1284;22466;-55
2022/10/17 23:17:59;;;;;;;14.20;7.30;;;23.30;72.50;;;;;;215017;1280;24331;-58
2022/10/17 23:23:04;;;;;;;7.90;5.80;;;23.30;72.20;;;;;;215104;1293;22580;-55
2022/10/17 23:28:15;;;;;;;9.00;5.90;;;23.30;72.10;;;;;;214999;1287;24185;-55
2022/10/17 23:33:20;;;;;;;13.40;6.70;;;23.30;72.10;;;;;;215036;1282;24425;-55
2022/10/17 23:38:23;;;;;;;10.20;6.80;;;23.30;72.40;;;;;;215001;1287;24459;-57
2022/10/17 23:43:27;;;;;;;12.50;6.80;;;23.30;72.40;;;;;;215024;1284;24276;-57
2022/10/17 23:48:30;;;;;;;8.90;6.00;;;23.30;72.30;;;;;;214585;1291;22493;-57
2022/10/17 23:53:36;;;;;;;8.10;5.90;;;23.20;72.30;;;;;;215095;1286;24021;-59
2022/10/17 23:58:39;;;;;;;8.00;5.70;;;23.20;72.30;;;;;;215059;1278;22536;-57
